Time;durP1;ratioP1;P1;durP2;ratioP2;P2;SDS_P1;SDS_P2;PMS_P1;PMS_P2;Temp;Humidity;BMP_temperature;BMP_pressure;BME280_temperature;BME280_humidity;BME280_pressure;Samples;Min_cycle;Max_cycle;Signal;HPM_P1;HPM_P2
2021/12/14 00:00:30;;;;;;;2.85;2.00;;;22.00;45.70;;;;;;5012524;28;20165;-69
2021/12/14 00:02:58;;;;;;;2.20;2.00;;;22.00;45.70;;;;;;4994948;28;20179;-71
2021/12/14 00:05:28;;;;;;;2.47;2.28;;;22.00;45.80;;;;;;4994766;28;20199;-71
2021/12/14 00:07:56;;;;;;;2.50;2.30;;;22.00;45.80;;;;;;5011103;28;20195;-71
2021/12/14 00:15:49;;;;;;;3.47;2.92;;;22.00;45.70;;;;;;4995372;28;20222;-71
2021/12/14 00:18:16;;;;;;;3.65;3.33;;;22.00;45.60;;;;;;4978391;28;20214;-71
2021/12/14 00:20:47;;;;;;;4.40;3.38;;;22.00;45.70;;;;;;4994963;28;20193;-71
2021/12/14 00:26:08;;;;;;;2.78;2.58;;;22.00;45.70;;;;;;5012302;28;20239;-71
2021/12/14 00:28:36;;;;;;;3.03;2.58;;;22.00;45.70;;;;;;4994694;28;20176;-71
2021/12/14 00:31:09;;;;;;;2.58;2.33;;;22.00;45.70;;;;;;4994595;28;20294;-72
2021/12/14 00:33:38;;;;;;;2.50;2.30;;;22.00;45.70;;;;;;4994631;28;20195;-71
2021/12/14 00:36:08;;;;;;;2.60;2.33;;;22.00;45.70;;;;;;4994769;28;20192;-71
2021/12/14 00:38:36;;;;;;;2.42;2.22;;;22.00;45.70;;;;;;4994440;28;20203;-71
2021/12/14 00:41:12;;;;;;;2.55;2.20;;;22.00;45.60;;;;;;4994359;28;20746;-71
2021/12/14 00:43:39;;;;;;;2.70;2.35;;;22.00;45.60;;;;;;4994568;28;20172;-71
2021/12/14 00:46:06;;;;;;;2.33;2.13;;;22.00;45.50;;;;;;4994423;28;20246;-71
2021/12/14 00:48:33;;;;;;;2.35;2.15;;;22.00;45.60;;;;;;5010644;28;20279;-71
2021/12/14 00:51:05;;;;;;;2.80;2.42;;;22.00;45.60;;;;;;4995105;28;20212;-71
2021/12/14 00:53:32;;;;;;;2.53;2.33;;;22.00;45.60;;;;;;4994344;28;20223;-72
2021/12/14 00:56:03;;;;;;;2.60;2.40;;;22.00;45.60;;;;;;4994361;28;20659;-71
2021/12/14 00:58:30;;;;;;;2.10;1.92;;;21.90;45.50;;;;;;5010642;28;20254;-71
2021/12/14 01:01:14;;;;;;;2.25;1.92;;;22.00;45.60;;;;;;4994628;28;20251;-71
2021/12/14 01:03:47;;;;;;;2.13;2.00;;;22.00;45.50;;;;;;4997581;28;20172;-71
2021/12/14 01:06:15;;;;;;;2.35;2.15;;;22.00;45.60;;;;;;4997964;28;20202;-71
2021/12/14 01:08:45;;;;;;;1.90;1.80;;;22.00;45.60;;;;;;5013834;28;20211;-71
2021/12/14 01:11:21;;;;;;;2.33;2.13;;;22.00;45.60;;;;;;5027147;28;20694;-71
2021/12/14 01:14:01;;;;;;;2.20;2.00;;;22.00;45.60;;;;;;4998228;28;20242;-71
2021/12/14 01:16:52;;;;;;;2.55;2.25;;;22.00;45.50;;;;;;4997715;28;20180;-71
2021/12/14 01:19:28;;;;;;;2.55;2.35;;;22.00;45.50;;;;;;5030040;28;20220;-71
2021/12/14 01:25:42;;;;;;;2.30;2.10;;;21.90;45.40;;;;;;5014265;28;20213;-71
2021/12/14 01:28:18;;;;;;;2.28;2.08;;;22.00;45.50;;;;;;4997865;28;20233;-71
2021/12/14 01:31:04;;;;;;;2.28;2.08;;;22.00;45.50;;;;;;4997238;28;20188;-71
2021/12/14 01:33:33;;;;;;;2.40;2.20;;;22.00;45.50;;;;;;4997203;28;20271;-71
2021/12/14 01:36:01;;;;;;;2.55;2.08;;;22.00;45.40;;;;;;4980843;28;20192;-71
2021/12/14 01:41:00;;;;;;;2.00;1.80;;;21.90;45.40;;;;;;5013670;28;20196;-71
2021/12/14 01:43:43;;;;;;;2.22;2.03;;;22.00;45.50;;;;;;5013455;28;20187;-71
2021/12/14 01:46:38;;;;;;;2.08;1.90;;;22.00;45.50;;;;;;4998364;28;20183;-71
2021/12/14 01:49:29;;;;;;;2.50;2.30;;;22.00;45.40;;;;;;4980064;28;20211;-71
2021/12/14 01:52:12;;;;;;;2.35;1.90;;;22.00;45.30;;;;;;4993726;28;20296;-71
2021/12/14 01:54:46;;;;;;;2.55;2.35;;;21.90;45.40;;;;;;4988014;28;20250;-71
2021/12/14 01:57:18;;;;;;;1.90;1.80;;;22.00;45.40;;;;;;4997185;28;20172;-71
2021/12/14 01:59:47;;;;;;;2.10;1.67;;;21.90;45.40;;;;;;4996804;28;20258;-71
2021/12/14 02:02:30;;;;;;;2.33;2.13;;;22.00;45.40;;;;;;5012926;28;20626;-71
2021/12/14 02:05:08;;;;;;;2.33;2.13;;;21.90;45.40;;;;;;4996819;28;20168;-71
2021/12/14 02:07:36;;;;;;;2.15;1.92;;;22.00;45.40;;;;;;4990565;28;20199;-71
2021/12/14 02:10:15;;;;;;;2.67;2.17;;;21.90;45.30;;;;;;5013096;28;20261;-71
2021/12/14 02:12:43;;;;;;;1.90;1.80;;;22.00;45.30;;;;;;4996540;28;20208;-71
2021/12/14 02:15:35;;;;;;;1.95;1.80;;;22.00;45.40;;;;;;4996828;28;20188;-71
2021/12/14 02:18:14;;;;;;;2.20;2.00;;;21.90;45.20;;;;;;5012735;28;20184;-71
2021/12/14 02:20:56;;;;;;;2.00;1.80;;;21.90;45.40;;;;;;5013020;28;20176;-71
2021/12/14 02:23:24;;;;;;;1.40;1.30;;;22.00;45.40;;;;;;5013028;28;20165;-71
2021/12/14 02:25:53;;;;;;;2.08;1.88;;;22.00;45.40;;;;;;4996333;28;20282;-71
2021/12/14 02:28:22;;;;;;;1.83;1.73;;;21.90;45.20;;;;;;4996267;28;20219;-71
2021/12/14 02:30:54;;;;;;;2.08;1.98;;;22.00;45.30;;;;;;5012500;28;20204;-71
2021/12/14 02:33:33;;;;;;;2.20;2.00;;;22.00;45.40;;;;;;5012608;28;20188;-72
2021/12/14 02:36:17;;;;;;;2.40;2.13;;;22.00;45.20;;;;;;5012442;28;20675;-71
2021/12/14 02:38:48;;;;;;;2.67;2.28;;;21.90;45.20;;;;;;5008766;28;20227;-72
2021/12/14 02:41:15;;;;;;;2.20;2.00;;;21.90;45.20;;;;;;4992998;28;20201;-71
2021/12/14 02:43:57;;;;;;;1.90;1.80;;;21.90;45.20;;;;;;5009017;28;20173;-71
2021/12/14 02:46:39;;;;;;;2.47;1.85;;;21.90;45.20;;;;;;5009241;28;20201;-71
2021/12/14 02:49:10;;;;;;;2.08;1.80;;;21.90;45.20;;;;;;5012066;28;20267;-71
2021/12/14 02:51:51;;;;;;;2.10;1.88;;;21.90;45.20;;;;;;5033532;22;20229;-68
2021/12/14 02:54:34;;;;;;;2.30;1.90;;;21.90;45.20;;;;;;5017259;28;20175;-68
2021/12/14 02:57:17;;;;;;;2.70;2.20;;;21.90;45.10;;;;;;5015246;28;20183;-68
2021/12/14 02:59:48;;;;;;;2.85;2.47;;;21.90;45.20;;;;;;5034499;28;20211;-68
2021/12/14 03:02:30;;;;;;;1.92;1.83;;;21.90;45.10;;;;;;5034170;28;20207;-69
2021/12/14 03:05:11;;;;;;;2.25;1.98;;;21.90;45.10;;;;;;5034402;28;20649;-68
2021/12/14 03:07:47;;;;;;;1.95;1.75;;;21.90;45.10;;;;;;5030471;28;20186;-68
2021/12/14 03:12:53;;;;;;;2.38;2.10;;;21.90;45.20;;;;;;5047390;28;20588;-68
2021/12/14 03:15:27;;;;;;;2.03;1.83;;;21.90;45.10;;;;;;5031379;28;20237;-68
2021/12/14 03:17:58;;;;;;;2.45;2.13;;;21.90;45.10;;;;;;5032366;28;20206;-68
2021/12/14 03:20:48;;;;;;;2.60;2.40;;;21.90;45.10;;;;;;5031630;28;20176;-68
2021/12/14 03:23:26;;;;;;;2.10;1.90;;;21.80;45.00;;;;;;5047960;28;20171;-68
2021/12/14 03:25:58;;;;;;;2.13;1.92;;;21.80;45.00;;;;;;5030870;28;20823;-68
2021/12/14 03:28:27;;;;;;;2.08;1.88;;;21.90;45.10;;;;;;5031321;28;20233;-68
2021/12/14 03:31:19;;;;;;;2.05;1.83;;;21.90;45.10;;;;;;5031096;28;20187;-68
2021/12/14 03:33:54;;;;;;;2.00;1.80;;;21.90;45.10;;;;;;5022224;28;20213;-68
2021/12/14 03:36:38;;;;;;;2.15;1.95;;;21.90;45.10;;;;;;5015094;28;20183;-68
2021/12/14 03:39:13;;;;;;;2.50;2.30;;;21.90;45.00;;;;;;5014388;28;20210;-68
2021/12/14 03:41:48;;;;;;;2.60;2.38;;;21.90;44.90;;;;;;4999601;28;20290;-68
2021/12/14 03:44:35;;;;;;;2.30;2.10;;;21.90;45.00;;;;;;5015204;28;20185;-68
2021/12/14 03:47:11;;;;;;;2.35;2.00;;;21.90;45.00;;;;;;5026611;28;20673;-68
2021/12/14 03:50:13;;;;;;;2.05;1.85;;;21.90;45.00;;;;;;5021055;28;20202;-68
2021/12/14 03:52:42;;;;;;;2.40;2.17;;;21.90;45.10;;;;;;5029705;28;20219;-68
2021/12/14 03:55:20;;;;;;;2.97;2.78;;;21.90;45.00;;;;;;5029020;28;20210;-68
2021/12/14 03:57:47;;;;;;;2.97;2.67;;;21.90;44.90;;;;;;5013023;28;20194;-68
2021/12/14 04:00:22;;;;;;;3.08;2.78;;;21.90;45.00;;;;;;5013125;28;20250;-68
2021/12/14 04:02:51;;;;;;;3.13;2.83;;;21.90;44.90;;;;;;5028166;28;20207;-68
2021/12/14 04:05:26;;;;;;;2.60;2.40;;;21.90;44.90;;;;;;4993693;28;20188;-68
2021/12/14 04:07:52;;;;;;;2.80;2.50;;;21.90;45.00;;;;;;4993472;28;20188;-68
2021/12/14 04:10:29;;;;;;;2.88;2.50;;;21.90;45.00;;;;;;4993694;28;20192;-68
2021/12/14 04:12:57;;;;;;;2.47;2.28;;;21.90;45.00;;;;;;5010047;28;20307;-68
2021/12/14 04:15:24;;;;;;;3.28;2.97;;;21.90;45.00;;;;;;5010207;28;20220;-68
2021/12/14 04:17:52;;;;;;;2.85;2.55;;;21.90;44.90;;;;;;4993443;28;20188;-68
2021/12/14 04:20:34;;;;;;;2.97;2.67;;;21.90;44.90;;;;;;5013646;28;20203;-68
2021/12/14 04:23:06;;;;;;;2.80;2.60;;;21.90;44.90;;;;;;4997852;28;20266;-68
2021/12/14 04:25:34;;;;;;;3.60;3.00;;;21.90;44.90;;;;;;5014507;28;20190;-68
2021/12/14 04:28:06;;;;;;;3.35;3.05;;;21.90;44.80;;;;;;5014322;28;20180;-68
2021/12/14 04:30:33;;;;;;;3.63;3.00;;;21.80;44.80;;;;;;5014370;28;20237;-68
2021/12/14 04:33:09;;;;;;;3.42;3.00;;;21.80;44.70;;;;;;5014249;28;20207;-68
2021/12/14 04:35:39;;;;;;;3.42;2.85;;;21.80;44.70;;;;;;5014191;28;20241;-68
2021/12/14 04:38:15;;;;;;;2.50;2.30;;;21.80;44.80;;;;;;5016624;28;20199;-68
2021/12/14 04:52:22;;;;;;;2.80;2.50;;;21.90;44.80;;;;;;5017588;28;20211;-68
2021/12/14 04:54:57;;;;;;;2.97;2.67;;;21.90;44.80;;;;;;5017585;28;20229;-68
2021/12/14 04:57:44;;;;;;;3.08;2.60;;;21.80;44.70;;;;;;5017390;28;20201;-67
2021/12/14 05:00:33;;;;;;;3.65;2.90;;;21.80;44.70;;;;;;5017725;28;20211;-68
2021/12/14 05:03:23;;;;;;;3.13;2.83;;;21.90;44.70;;;;;;5017347;28;20203;-68
2021/12/14 05:06:00;;;;;;;3.25;2.95;;;21.80;44.60;;;;;;5017366;28;20171;-68
2021/12/14 05:11:16;;;;;;;2.50;2.30;;;21.90;44.80;;;;;;5017194;28;20206;-68
2021/12/14 05:13:53;;;;;;;2.80;2.60;;;21.80;44.70;;;;;;4997503;28;20192;-68
2021/12/14 05:16:29;;;;;;;3.03;2.75;;;21.90;44.70;;;;;;4997716;28;20203;-69
2021/12/14 05:19:06;;;;;;;2.72;2.53;;;21.80;44.70;;;;;;4997318;28;20218;-68
2021/12/14 05:21:47;;;;;;;3.65;3.20;;;21.90;44.70;;;;;;4997386;28;20271;-68
2021/12/14 05:24:25;;;;;;;4.53;3.58;;;21.80;44.60;;;;;;5016681;28;20190;-68
2021/12/14 05:27:11;;;;;;;3.95;3.55;;;21.80;44.60;;;;;;5016645;28;20186;-68
2021/12/14 05:29:44;;;;;;;3.30;3.00;;;21.80;44.70;;;;;;5001362;28;20579;-67
2021/12/14 05:32:15;;;;;;;3.55;3.20;;;21.80;44.70;;;;;;5016719;28;20210;-68
2021/12/14 05:34:46;;;;;;;4.05;3.20;;;21.80;44.70;;;;;;5017004;28;20183;-69
2021/12/14 05:37:21;;;;;;;3.22;2.92;;;21.80;44.60;;;;;;5017193;28;20195;-68
2021/12/14 05:39:59;;;;;;;3.67;3.20;;;21.80;44.70;;;;;;5016462;28;20214;-68
2021/12/14 05:45:27;;;;;;;3.42;3.13;;;21.80;44.60;;;;;;5016840;28;20202;-68
2021/12/14 05:47:59;;;;;;;4.43;3.60;;;21.80;44.50;;;;;;5015752;28;20222;-68
2021/12/14 05:50:42;;;;;;;2.72;2.50;;;21.80;44.70;;;;;;5016714;28;20183;-68
2021/12/14 05:53:18;;;;;;;3.22;2.92;;;21.80;44.60;;;;;;5016274;28;20700;-68
2021/12/14 05:55:44;;;;;;;3.25;2.95;;;21.80;44.70;;;;;;5016510;28;20677;-68
2021/12/14 05:58:16;;;;;;;3.03;2.72;;;21.80;44.60;;;;;;5016385;28;20183;-68
2021/12/14 06:00:49;;;;;;;3.33;3.03;;;21.80;44.60;;;;;;5016352;28;20237;-68
2021/12/14 06:03:25;;;;;;;3.30;3.00;;;21.80;44.60;;;;;;5016297;28;20262;-68
2021/12/14 06:05:54;;;;;;;3.58;2.92;;;21.80;44.60;;;;;;5016621;28;20191;-69
2021/12/14 06:08:28;;;;;;;3.85;2.65;;;21.80;44.50;;;;;;5015971;28;20222;-69
2021/12/14 06:11:02;;;;;;;3.65;3.28;;;21.80;44.50;;;;;;5016427;28;20183;-68
2021/12/14 06:13:42;;;;;;;3.47;3.03;;;21.80;44.50;;;;;;5016446;28;20198;-68
2021/12/14 06:16:27;;;;;;;2.92;2.63;;;21.80;44.50;;;;;;5016336;28;20229;-69
2021/12/14 06:19:11;;;;;;;3.10;2.80;;;21.80;44.60;;;;;;5014650;28;20211;-68
2021/12/14 06:21:37;;;;;;;3.25;2.95;;;21.80;44.60;;;;;;5014858;28;20203;-68
2021/12/14 06:24:07;;;;;;;3.83;2.50;;;21.80;44.60;;;;;;5013996;28;20187;-68
2021/12/14 06:26:52;;;;;;;3.63;3.33;;;21.80;44.60;;;;;;5015418;28;20194;-68
2021/12/14 06:29:24;;;;;;;4.00;3.60;;;21.90;44.60;;;;;;5032888;28;20262;-68
2021/12/14 06:31:52;;;;;;;3.67;3.38;;;21.80;44.50;;;;;;5014858;28;20306;-66
2021/12/14 06:34:29;;;;;;;3.97;3.58;;;21.80;44.50;;;;;;4998713;28;20670;-68
2021/12/14 06:37:04;;;;;;;4.00;3.58;;;21.80;44.60;;;;;;5031126;28;20209;-68
2021/12/14 06:40:18;;;;;;;3.70;3.30;;;21.80;44.40;;;;;;5012285;28;20705;-68
2021/12/14 06:42:48;;;;;;;3.20;2.92;;;21.80;44.60;;;;;;4998704;28;20203;-68
2021/12/14 06:45:24;;;;;;;3.75;3.10;;;21.80;44.60;;;;;;4998630;28;20215;-69
2021/12/14 06:47:57;;;;;;;3.15;2.85;;;21.80;44.60;;;;;;5023378;28;20210;-68
2021/12/14 06:50:46;;;;;;;3.58;3.10;;;21.80;44.50;;;;;;5027209;28;20198;-68
2021/12/14 06:53:26;;;;;;;4.40;3.05;;;21.80;44.50;;;;;;5012686;28;20190;-68
2021/12/14 06:56:30;;;;;;;3.30;3.00;;;21.80;44.50;;;;;;5009146;28;20241;-68
2021/12/14 06:59:34;;;;;;;3.33;3.00;;;21.80;44.70;;;;;;4987462;28;20211;-68
2021/12/14 07:02:12;;;;;;;4.70;3.90;;;21.80;44.50;;;;;;4956387;28;20209;-68
2021/12/14 07:05:02;;;;;;;6.55;4.95;;;21.70;44.50;;;;;;4983286;28;20192;-68
2021/12/14 07:07:32;;;;;;;3.70;3.40;;;21.80;44.60;;;;;;5026334;28;20189;-68
2021/12/14 07:10:05;;;;;;;4.00;3.58;;;21.80;44.60;;;;;;5027154;28;20294;-69
2021/12/14 07:12:38;;;;;;;3.88;3.47;;;21.80;44.60;;;;;;5014408;28;20203;-68
2021/12/14 07:15:35;;;;;;;3.95;3.55;;;21.80;44.60;;;;;;5031907;28;20195;-68
2021/12/14 07:18:04;;;;;;;4.80;3.97;;;21.80;44.60;;;;;;5013780;28;20191;-68
2021/12/14 07:20:38;;;;;;;4.28;3.88;;;21.80;44.60;;;;;;5014350;28;20186;-68
2021/12/14 07:23:22;;;;;;;5.00;4.53;;;21.80;44.60;;;;;;4995667;28;20203;-68
2021/12/14 07:26:00;;;;;;;5.38;4.70;;;21.80;44.50;;;;;;5012953;28;20187;-68
2021/12/14 07:28:40;;;;;;;4.88;4.35;;;21.80;44.60;;;;;;5013671;28;20248;-68
2021/12/14 07:31:14;;;;;;;4.85;4.32;;;21.80;44.50;;;;;;5013303;28;20206;-68
2021/12/14 07:33:47;;;;;;;4.65;4.13;;;21.80;44.60;;;;;;5030668;28;20183;-69
2021/12/14 07:36:36;;;;;;;5.13;4.03;;;21.80;44.60;;;;;;5014261;28;20253;-68
2021/12/14 07:39:10;;;;;;;4.60;4.20;;;21.80;44.60;;;;;;4994417;28;20223;-69
2021/12/14 07:41:46;;;;;;;5.25;4.75;;;21.80;44.60;;;;;;4994433;28;20265;-68
2021/12/14 07:44:33;;;;;;;6.68;5.90;;;21.70;44.50;;;;;;5011642;28;20187;-69
2021/12/14 07:47:14;;;;;;;5.68;5.03;;;21.80;44.60;;;;;;5013981;28;20207;-69
2021/12/14 07:49:57;;;;;;;5.65;4.82;;;21.80;44.60;;;;;;5014109;28;20183;-69
2021/12/14 07:52:30;;;;;;;5.40;4.47;;;21.80;44.60;;;;;;5013831;28;20594;-68
2021/12/14 07:55:11;;;;;;;4.32;3.92;;;21.70;44.60;;;;;;5013991;28;20274;-68
2021/12/14 07:57:38;;;;;;;5.72;4.80;;;21.80;44.60;;;;;;5013939;28;20186;-69
2021/12/14 08:00:21;;;;;;;5.40;4.57;;;21.80;44.60;;;;;;5031889;28;20222;-68
2021/12/14 08:02:58;;;;;;;5.45;4.75;;;21.80;44.60;;;;;;5013798;28;20207;-69
2021/12/14 08:05:28;;;;;;;5.15;4.35;;;21.80;44.60;;;;;;5013853;28;20240;-69
2021/12/14 08:07:59;;;;;;;5.00;4.45;;;21.80;44.50;;;;;;5013719;28;20187;-69
2021/12/14 08:10:32;;;;;;;4.80;4.32;;;21.80;44.50;;;;;;5013916;28;20189;-68
2021/12/14 08:13:09;;;;;;;5.20;4.57;;;21.80;44.60;;;;;;5017831;28;20206;-68
2021/12/14 08:15:49;;;;;;;4.35;3.88;;;21.80;44.60;;;;;;5017731;28;20199;-68
2021/12/14 08:18:27;;;;;;;4.85;4.30;;;21.80;44.60;;;;;;5033968;28;20182;-68
2021/12/14 08:21:00;;;;;;;4.78;4.10;;;21.80;44.70;;;;;;5017467;28;20341;-69
2021/12/14 08:23:34;;;;;;;4.57;4.18;;;21.80;44.70;;;;;;5017636;28;20191;-68
2021/12/14 08:26:05;;;;;;;5.80;4.95;;;21.80;44.60;;;;;;5018017;28;20213;-68
2021/12/14 08:28:32;;;;;;;5.35;4.85;;;21.90;44.60;;;;;;5017308;28;20198;-69
2021/12/14 08:31:05;;;;;;;5.32;4.70;;;21.80;44.50;;;;;;5017575;28;20183;-68
2021/12/14 08:33:32;;;;;;;5.55;5.05;;;21.80;44.60;;;;;;5033766;28;20724;-68
2021/12/14 08:36:04;;;;;;;5.47;4.88;;;21.80;44.60;;;;;;5017435;28;20255;-68
2021/12/14 08:38:33;;;;;;;5.25;4.70;;;21.80;44.60;;;;;;5034840;28;20211;-68
2021/12/14 08:41:13;;;;;;;5.93;4.70;;;21.90;44.60;;;;;;5034752;28;20182;-69
2021/12/14 08:43:48;;;;;;;5.18;4.60;;;21.80;44.60;;;;;;5017467;28;20186;-69
2021/12/14 08:46:29;;;;;;;5.38;4.88;;;21.80;44.60;;;;;;5017163;28;20197;-68
2021/12/14 08:49:00;;;;;;;5.28;4.78;;;21.90;44.60;;;;;;5017134;28;20207;-68
2021/12/14 08:51:36;;;;;;;5.15;4.65;;;21.90;44.70;;;;;;5029669;22;20214;-69
2021/12/14 08:54:21;;;;;;;5.30;4.80;;;21.90;44.70;;;;;;5035260;28;20228;-68
2021/12/14 08:57:13;;;;;;;4.95;4.53;;;21.90;44.70;;;;;;5052986;28;20183;-68
2021/12/14 08:59:45;;;;;;;5.40;4.90;;;21.90;44.60;;;;;;5053763;28;20202;-69
2021/12/14 09:02:16;;;;;;;5.50;5.00;;;21.90;44.60;;;;;;5047944;28;20281;-69
2021/12/14 09:04:59;;;;;;;5.75;4.70;;;21.90;44.60;;;;;;5001552;28;20175;-68
2021/12/14 09:07:30;;;;;;;4.95;4.32;;;21.90;44.70;;;;;;5000848;28;20171;-68
2021/12/14 09:09:58;;;;;;;5.00;4.50;;;21.90;44.70;;;;;;5001021;28;20179;-68
2021/12/14 09:12:34;;;;;;;5.40;4.90;;;21.90;44.70;;;;;;5017158;28;20222;-69
2021/12/14 09:15:11;;;;;;;5.15;4.60;;;21.90;44.60;;;;;;5014159;28;20255;-69
2021/12/14 09:17:37;;;;;;;5.45;4.95;;;21.90;44.60;;;;;;4998015;28;20172;-68
2021/12/14 09:20:26;;;;;;;5.43;4.80;;;21.90;44.60;;;;;;5050225;28;20207;-69
2021/12/14 09:22:59;;;;;;;5.28;4.78;;;21.90;44.60;;;;;;5011970;28;20289;-69
2021/12/14 09:25:29;;;;;;;5.70;4.38;;;21.90;44.60;;;;;;5012092;28;20188;-69
2021/12/14 09:28:00;;;;;;;5.15;4.65;;;21.90;45.20;;;;;;4981339;28;20238;-69
2021/12/14 09:30:32;;;;;;;4.90;4.45;;;21.90;44.70;;;;;;4980974;28;20195;-69
2021/12/14 09:32:58;;;;;;;5.25;4.60;;;21.90;44.70;;;;;;4997304;28;20604;-69
2021/12/14 09:35:28;;;;;;;5.00;4.60;;;21.90;44.70;;;;;;5015928;28;20195;-69
2021/12/14 09:37:57;;;;;;;4.78;4.38;;;21.90;44.70;;;;;;5016726;28;20229;-68
2021/12/14 09:40:37;;;;;;;4.50;4.10;;;21.90;44.70;;;;;;5016708;28;20207;-68
2021/12/14 09:43:04;;;;;;;5.13;4.63;;;21.90;44.70;;;;;;5000287;28;20207;-68
2021/12/14 09:45:42;;;;;;;5.10;4.60;;;22.00;44.70;;;;;;5000186;28;20180;-69
2021/12/14 09:48:15;;;;;;;4.80;4.40;;;21.90;44.70;;;;;;5034256;28;20178;-68
2021/12/14 09:50:44;;;;;;;5.18;4.68;;;22.00;44.80;;;;;;5016690;28;20175;-68
2021/12/14 09:53:14;;;;;;;4.93;4.53;;;22.00;44.70;;;;;;5016593;28;20294;-68
2021/12/14 09:55:44;;;;;;;4.95;4.55;;;22.00;44.70;;;;;;5034210;28;20172;-68
2021/12/14 09:58:28;;;;;;;4.88;4.47;;;21.90;44.60;;;;;;5016782;28;20188;-68
2021/12/14 10:01:08;;;;;;;4.93;4.53;;;21.90;44.60;;;;;;5016427;28;20186;-68
2021/12/14 10:03:35;;;;;;;4.50;4.10;;;22.00;45.40;;;;;;5034205;28;20209;-68
2021/12/14 10:06:12;;;;;;;4.55;4.15;;;22.00;44.80;;;;;;5000324;28;20175;-68
2021/12/14 10:08:45;;;;;;;4.72;4.30;;;22.00;44.70;;;;;;4996618;28;20223;-68
2021/12/14 10:11:35;;;;;;;3.85;3.53;;;22.00;44.80;;;;;;4996737;28;20250;-68
2021/12/14 10:14:04;;;;;;;4.75;4.35;;;22.00;44.80;;;;;;5013074;28;20180;-68
2021/12/14 10:16:31;;;;;;;4.82;4.38;;;22.00;45.40;;;;;;4996525;28;20182;-69
2021/12/14 10:19:12;;;;;;;4.35;3.95;;;22.00;44.70;;;;;;4996299;28;20252;-68
2021/12/14 10:22:00;;;;;;;4.25;3.88;;;22.00;44.70;;;;;;4996795;28;20184;-68
2021/12/14 10:24:27;;;;;;;4.90;3.97;;;22.00;44.80;;;;;;5012603;28;20236;-68
2021/12/14 10:27:04;;;;;;;4.43;4.03;;;22.00;44.80;;;;;;5016086;28;20689;-68
2021/12/14 10:29:31;;;;;;;4.40;4.00;;;22.00;44.80;;;;;;5015794;28;20171;-69
2021/12/14 10:32:08;;;;;;;4.40;4.00;;;22.00;44.80;;;;;;4999604;28;20290;-69
2021/12/14 10:34:41;;;;;;;4.50;4.10;;;22.00;44.80;;;;;;5012565;28;20692;-68
2021/12/14 10:37:19;;;;;;;4.85;4.35;;;22.00;44.80;;;;;;5013737;28;20176;-68
2021/12/14 10:45:06;;;;;;;5.30;4.90;;;22.00;44.90;;;;;;5033280;28;20187;-68
2021/12/14 10:47:33;;;;;;;5.43;4.93;;;22.00;44.90;;;;;;4999319;28;20650;-68
2021/12/14 10:50:05;;;;;;;5.20;4.72;;;22.10;45.00;;;;;;5015577;28;20655;-68
2021/12/14 10:52:32;;;;;;;5.00;4.60;;;22.00;45.00;;;;;;5002384;28;20211;-68
2021/12/14 10:55:08;;;;;;;5.82;5.07;;;22.00;45.00;;;;;;5013570;28;20269;-68
2021/12/14 10:57:36;;;;;;;5.10;4.70;;;22.10;45.10;;;;;;5018589;28;20175;-67
2021/12/14 11:00:30;;;;;;;5.32;4.93;;;22.00;45.00;;;;;;5029445;28;20357;-68
2021/12/14 11:03:03;;;;;;;4.97;4.57;;;22.10;45.20;;;;;;5018752;28;20221;-69
2021/12/14 11:05:32;;;;;;;5.05;4.57;;;22.10;45.20;;;;;;5015456;28;20686;-69
2021/12/14 11:07:59;;;;;;;5.20;4.70;;;22.10;45.10;;;;;;5013174;28;20194;-70
2021/12/14 11:10:36;;;;;;;5.05;4.65;;;22.00;45.00;;;;;;5034397;28;20194;-69
2021/12/14 11:13:11;;;;;;;5.35;4.45;;;22.10;45.10;;;;;;5035047;28;20209;-69
2021/12/14 11:15:49;;;;;;;4.63;4.22;;;22.00;45.10;;;;;;5018716;28;20185;-70
2021/12/14 11:18:22;;;;;;;5.22;4.72;;;22.10;45.20;;;;;;5034889;28;20171;-70
2021/12/14 11:21:02;;;;;;;5.32;4.82;;;22.10;45.20;;;;;;5024048;28;20187;-69
2021/12/14 11:23:40;;;;;;;5.15;4.28;;;22.10;45.10;;;;;;4995693;28;20199;-69
2021/12/14 11:26:19;;;;;;;4.93;4.53;;;22.10;45.20;;;;;;5030910;28;20197;-69
2021/12/14 11:29:04;;;;;;;4.72;4.30;;;22.10;45.20;;;;;;5034524;28;20214;-68
2021/12/14 11:31:41;;;;;;;4.93;4.43;;;22.10;45.20;;;;;;5012381;28;20189;-68
2021/12/14 11:34:26;;;;;;;5.93;4.63;;;22.10;45.20;;;;;;5018305;28;20186;-69
2021/12/14 11:37:02;;;;;;;4.45;4.05;;;22.10;45.30;;;;;;5027102;28;20219;-68
2021/12/14 11:39:38;;;;;;;4.80;4.40;;;22.10;45.20;;;;;;4998241;28;20210;-68
2021/12/14 11:42:10;;;;;;;5.10;4.60;;;22.10;45.30;;;;;;5032440;28;20257;-67
2021/12/14 11:45:07;;;;;;;4.50;4.10;;;22.10;45.30;;;;;;5032479;28;20229;-67
2021/12/14 11:47:46;;;;;;;4.80;4.28;;;22.10;45.30;;;;;;4997988;28;20218;-68
2021/12/14 11:50:34;;;;;;;4.18;3.83;;;22.10;45.30;;;;;;5014679;28;20215;-69
2021/12/14 11:53:10;;;;;;;4.47;4.18;;;22.10;45.70;;;;;;5003619;28;20220;-69
2021/12/14 11:55:38;;;;;;;4.57;4.18;;;22.10;45.30;;;;;;4994915;28;20183;-70
2021/12/14 11:58:45;;;;;;;4.47;4.07;;;22.10;45.40;;;;;;5029759;28;20192;-69
2021/12/14 12:01:29;;;;;;;4.53;4.22;;;22.10;45.40;;;;;;4998578;28;20190;-70
2021/12/14 12:04:03;;;;;;;4.43;4.03;;;22.10;45.40;;;;;;5032232;28;20258;-69
2021/12/14 12:09:49;;;;;;;4.90;4.38;;;22.10;45.40;;;;;;5032339;28;20172;-67
2021/12/14 12:12:31;;;;;;;4.50;4.10;;;22.10;45.40;;;;;;4998494;28;20207;-68
2021/12/14 12:15:11;;;;;;;4.43;4.03;;;22.10;45.50;;;;;;4998153;28;20183;-69
2021/12/14 12:17:56;;;;;;;4.63;4.22;;;22.10;45.40;;;;;;5014272;28;20175;-69
2021/12/14 12:20:33;;;;;;;6.20;4.57;;;22.10;45.40;;;;;;5029534;28;20208;-68
2021/12/14 12:23:23;;;;;;;5.03;4.53;;;22.10;45.50;;;;;;5017843;28;20340;-68
2021/12/14 12:26:02;;;;;;;4.60;4.20;;;22.10;45.50;;;;;;5023016;28;20734;-69
2021/12/14 12:28:38;;;;;;;4.82;4.43;;;22.10;45.50;;;;;;5033942;28;20185;-69
2021/12/14 12:31:15;;;;;;;4.30;3.92;;;22.10;45.50;;;;;;5034215;28;20571;-70
2021/12/14 12:33:51;;;;;;;4.40;4.10;;;22.10;45.60;;;;;;5034094;28;20206;-70
2021/12/14 12:36:41;;;;;;;4.93;4.43;;;22.10;45.60;;;;;;5034240;28;20312;-69
2021/12/14 12:39:16;;;;;;;5.15;4.22;;;22.10;45.60;;;;;;5033992;28;20297;-70
2021/12/14 12:41:50;;;;;;;4.53;4.10;;;22.10;45.60;;;;;;5034074;28;20218;-70
2021/12/14 12:44:25;;;;;;;5.50;4.43;;;22.10;45.60;;;;;;5017803;28;20201;-69
2021/12/14 12:46:56;;;;;;;4.72;4.32;;;22.20;45.70;;;;;;5033994;28;20179;-69
2021/12/14 12:49:29;;;;;;;5.20;4.65;;;22.20;45.70;;;;;;5017159;28;20590;-70
2021/12/14 12:52:01;;;;;;;4.95;4.53;;;22.10;45.60;;;;;;5017280;28;20238;-69
2021/12/14 12:54:47;;;;;;;5.30;4.80;;;22.10;45.70;;;;;;5017840;28;20233;-70
2021/12/14 12:57:33;;;;;;;4.97;4.38;;;22.10;45.60;;;;;;5051690;28;20191;-69
2021/12/14 13:00:43;;;;;;;4.78;4.20;;;22.20;45.70;;;;;;5020981;28;20263;-69
2021/12/14 13:03:32;;;;;;;4.68;4.28;;;22.10;45.70;;;;;;4996726;28;20208;-70
2021/12/14 13:05:57;;;;;;;4.72;4.32;;;22.10;45.70;;;;;;4980539;28;20204;-70
2021/12/14 13:08:39;;;;;;;4.75;4.35;;;22.10;45.70;;;;;;5013561;28;20218;-69
2021/12/14 13:11:14;;;;;;;4.80;4.40;;;22.10;45.70;;;;;;5020646;28;20228;-70
2021/12/14 13:13:48;;;;;;;4.97;4.57;;;22.20;45.80;;;;;;5037340;28;20194;-69
2021/12/14 13:16:21;;;;;;;4.72;4.30;;;22.10;45.70;;;;;;5020640;28;20178;-70
2021/12/14 13:19:01;;;;;;;5.03;4.63;;;22.20;45.80;;;;;;5019924;28;20206;-70
2021/12/14 13:21:42;;;;;;;5.13;4.15;;;22.10;45.70;;;;;;5020269;28;20197;-71
2021/12/14 13:24:34;;;;;;;4.72;4.32;;;22.10;45.70;;;;;;5054933;28;20212;-70
2021/12/14 13:27:12;;;;;;;5.03;4.55;;;22.10;45.80;;;;;;5036754;28;20194;-69
2021/12/14 13:29:45;;;;;;;5.20;4.72;;;22.20;45.90;;;;;;5037102;28;20186;-70
2021/12/14 13:32:24;;;;;;;5.43;4.93;;;22.10;45.80;;;;;;5023849;28;20219;-69
2021/12/14 13:35:22;;;;;;;4.78;4.28;;;22.10;45.80;;;;;;5013981;28;20278;-71
2021/12/14 13:37:57;;;;;;;4.63;4.15;;;22.20;45.80;;;;;;4997149;28;20197;-69
2021/12/14 13:40:31;;;;;;;5.20;4.70;;;22.10;45.80;;;;;;4997359;28;20223;-69
2021/12/14 13:43:17;;;;;;;4.85;4.45;;;22.10;46.20;;;;;;5000605;28;20223;-70
2021/12/14 13:45:48;;;;;;;5.07;4.57;;;22.10;46.30;;;;;;5000848;28;20175;-69
2021/12/14 13:48:20;;;;;;;4.88;4.38;;;22.10;46.20;;;;;;5016953;28;20172;-69
2021/12/14 13:50:51;;;;;;;5.95;4.55;;;22.10;46.30;;;;;;5016400;28;20190;-70
2021/12/14 13:53:18;;;;;;;4.60;4.20;;;22.20;46.30;;;;;;5016549;28;20265;-70
2021/12/14 13:55:52;;;;;;;4.95;4.45;;;22.10;46.20;;;;;;5000650;28;20195;-69
2021/12/14 13:58:23;;;;;;;4.80;4.38;;;22.10;46.20;;;;;;5000308;28;20182;-69
2021/12/14 14:01:09;;;;;;;5.68;4.60;;;22.10;46.10;;;;;;5034369;28;20199;-69
2021/12/14 14:03:40;;;;;;;4.43;4.05;;;22.10;46.10;;;;;;5000288;28;20210;-70
2021/12/14 14:06:12;;;;;;;4.93;4.43;;;22.10;46.20;;;;;;5000405;28;20186;-69
2021/12/14 14:08:47;;;;;;;5.57;4.20;;;22.20;46.30;;;;;;5033687;28;20262;-70
2021/12/14 14:11:27;;;;;;;4.90;4.38;;;22.10;46.10;;;;;;5000417;28;20682;-69
2021/12/14 14:14:03;;;;;;;5.05;4.55;;;22.10;46.20;;;;;;5016376;28;20665;-69
2021/12/14 14:16:36;;;;;;;5.60;5.00;;;22.10;46.10;;;;;;5016463;28;20179;-70